createdAt,value
2018-09-27T00:00:03.780Z,51.40
2018-09-27T00:02:31.330Z,51.30
2018-09-27T00:04:58.876Z,51.20
2018-09-27T00:07:26.422Z,51.00
2018-09-27T00:09:53.964Z,51.10
2018-09-27T00:12:21.509Z,51.10
2018-09-27T00:14:49.027Z,51.00
2018-09-27T00:17:16.551Z,50.90
2018-09-27T00:19:44.197Z,51.00
2018-09-27T00:22:11.636Z,50.90
2018-09-27T00:24:39.224Z,51.00
2018-09-27T00:27:06.782Z,50.80
2018-09-27T00:29:34.322Z,51.00
2018-09-27T00:32:01.851Z,51.20
2018-09-27T00:34:29.364Z,51.10
2018-09-27T00:36:56.895Z,51.00
2018-09-27T00:39:24.429Z,51.10
2018-09-27T00:41:51.953Z,51.00
2018-09-27T00:44:19.491Z,50.40
2018-09-27T00:46:47.069Z,50.30
2018-09-27T00:49:14.620Z,50.40
2018-09-27T00:51:42.144Z,50.40
2018-09-27T00:54:09.685Z,50.20
2018-09-27T00:56:37.210Z,50.20
2018-09-27T00:59:04.803Z,50.10
2018-09-27T01:01:32.330Z,50.20
2018-09-27T01:03:59.865Z,50.30
2018-09-27T01:06:27.412Z,50.50
2018-09-27T01:08:54.944Z,50.50
2018-09-27T01:11:22.495Z,50.60
2018-09-27T01:13:50.040Z,50.60
2018-09-27T01:16:17.635Z,50.30
2018-09-27T01:18:45.202Z,50.30
2018-09-27T01:21:12.731Z,50.10
2018-09-27T01:23:40.296Z,50.30
2018-09-27T01:26:07.827Z,50.20
2018-09-27T01:28:35.359Z,50.20
2018-09-27T01:31:02.883Z,50.30
2018-09-27T01:33:30.415Z,50.40
2018-09-27T01:35:57.948Z,50.50
2018-09-27T01:38:25.491Z,50.60
2018-09-27T01:40:53.074Z,50.60
2018-09-27T01:43:20.604Z,50.70
2018-09-27T01:45:48.376Z,50.80
2018-09-27T01:48:15.935Z,50.80
2018-09-27T01:50:43.503Z,50.90
2018-09-27T01:53:11.045Z,50.80
2018-09-27T01:55:38.593Z,50.80
2018-09-27T01:58:06.186Z,50.70
2018-09-27T02:00:33.760Z,50.70
2018-09-27T02:03:01.313Z,50.60
2018-09-27T02:05:28.852Z,50.60
2018-09-27T02:07:56.386Z,50.60
2018-09-27T02:10:23.920Z,50.70
2018-09-27T02:12:51.460Z,50.60
2018-09-27T02:15:19.000Z,50.70
2018-09-27T02:17:46.531Z,50.90
2018-09-27T02:20:14.071Z,50.80
2018-09-27T02:22:41.912Z,50.70
2018-09-27T02:25:09.549Z,50.80
2018-09-27T02:27:37.106Z,50.90
2018-09-27T02:30:04.690Z,50.90
2018-09-27T02:32:32.234Z,51.00
2018-09-27T02:34:59.754Z,51.10
2018-09-27T02:37:27.270Z,51.10
2018-09-27T02:39:54.777Z,51.20
2018-09-27T02:42:22.294Z,51.30
2018-09-27T02:44:49.806Z,51.40
2018-09-27T02:47:17.314Z,51.60
2018-09-27T02:49:44.821Z,51.60
2018-09-27T02:52:12.330Z,51.80
2018-09-27T02:54:39.839Z,51.40
2018-09-27T02:57:07.364Z,51.20
2018-09-27T02:59:34.879Z,51.20
2018-09-27T03:02:02.382Z,51.00
2018-09-27T03:04:29.907Z,51.00
2018-09-27T03:06:57.451Z,50.90
2018-09-27T03:09:24.966Z,50.70
2018-09-27T03:11:52.479Z,50.80
2018-09-27T03:14:19.984Z,50.80
2018-09-27T03:16:47.499Z,50.90
2018-09-27T03:19:15.048Z,50.90
2018-09-27T03:21:42.557Z,50.60
2018-09-27T03:24:10.078Z,50.40
2018-09-27T03:26:37.593Z,50.40
2018-09-27T03:29:05.206Z,50.20
2018-09-27T03:31:32.723Z,50.20
2018-09-27T03:34:00.262Z,50.30
2018-09-27T03:36:27.770Z,50.50
2018-09-27T03:38:55.282Z,50.60
2018-09-27T03:41:22.811Z,50.70
2018-09-27T03:43:50.335Z,50.70
2018-09-27T03:46:17.850Z,50.90
2018-09-27T03:48:45.345Z,51.00
2018-09-27T03:51:12.863Z,51.30
2018-09-27T03:53:40.370Z,51.40
2018-09-27T03:56:07.883Z,51.50
2018-09-27T03:58:35.434Z,51.60
2018-09-27T04:01:02.940Z,51.50
2018-09-27T04:03:30.457Z,51.60
2018-09-27T04:05:57.970Z,51.80
2018-09-27T04:08:25.481Z,52.00
2018-09-27T04:10:52.995Z,52.00
2018-09-27T04:13:20.507Z,52.10
2018-09-27T04:15:48.008Z,52.10
2018-09-27T04:18:15.501Z,52.20
2018-09-27T04:20:51.331Z,52.10
2018-09-27T04:23:20.327Z,52.20
2018-09-27T04:25:48.085Z,52.20
2018-09-27T04:28:15.600Z,52.30
2018-09-27T04:30:43.121Z,52.20
2018-09-27T04:33:10.658Z,52.20
2018-09-27T04:35:38.165Z,52.40
2018-09-27T04:38:05.853Z,52.50
2018-09-27T04:40:33.371Z,52.50
2018-09-27T04:43:00.957Z,52.40
2018-09-27T04:45:28.498Z,52.50
2018-09-27T04:47:55.997Z,52.50
2018-09-27T04:50:23.511Z,52.50
2018-09-27T04:52:51.014Z,52.40
2018-09-27T04:55:18.533Z,52.70
2018-09-27T04:57:46.053Z,52.80
2018-09-27T05:00:13.567Z,52.80
2018-09-27T05:02:41.082Z,52.90
2018-09-27T05:05:08.600Z,53.20
2018-09-27T05:07:36.110Z,53.20
2018-09-27T05:10:03.818Z,53.30
2018-09-27T05:12:31.309Z,53.50
2018-09-27T05:14:58.816Z,53.30
2018-09-27T05:17:26.323Z,53.20
2018-09-27T05:19:53.825Z,53.20
2018-09-27T05:22:21.339Z,53.30
2018-09-27T05:24:48.843Z,53.40
2018-09-27T05:27:16.378Z,53.60
2018-09-27T05:29:43.862Z,53.70
2018-09-27T05:32:11.370Z,53.70
2018-09-27T05:34:38.896Z,53.80
2018-09-27T05:37:06.404Z,53.90
2018-09-27T05:39:33.943Z,53.90
2018-09-27T05:42:01.522Z,54.20
2018-09-27T05:44:29.019Z,54.10
2018-09-27T05:46:56.538Z,53.80
2018-09-27T05:49:24.079Z,53.60
2018-09-27T05:51:51.594Z,53.80
2018-09-27T05:54:19.122Z,53.90
2018-09-27T05:56:46.645Z,54.70
2018-09-27T05:59:14.206Z,54.00
2018-09-27T06:01:41.741Z,54.00
2018-09-27T06:04:09.269Z,54.30
2018-09-27T06:06:36.798Z,54.50
2018-09-27T06:09:07.883Z,54.60
2018-09-27T06:11:35.423Z,54.50
2018-09-27T06:14:03.185Z,54.60
2018-09-27T06:16:30.698Z,54.40
2018-09-27T06:18:58.243Z,54.50
2018-09-27T06:21:25.800Z,54.60
2018-09-27T06:23:53.523Z,54.60
2018-09-27T06:26:21.067Z,54.30
2018-09-27T06:28:48.572Z,54.20
2018-09-27T06:31:16.116Z,54.10
2018-09-27T06:33:43.741Z,54.10
2018-09-27T06:36:11.186Z,54.10
2018-09-27T06:38:38.741Z,54.20
2018-09-27T06:41:06.265Z,54.20
2018-09-27T06:43:33.760Z,54.30
2018-09-27T06:46:01.289Z,54.10
2018-09-27T06:48:28.912Z,54.00
2018-09-27T06:50:56.372Z,54.10
2018-09-27T06:53:23.882Z,54.30
2018-09-27T06:55:51.512Z,54.60
2018-09-27T06:58:18.927Z,54.60
2018-09-27T07:00:46.470Z,54.80
2018-09-27T07:03:13.988Z,54.80
2018-09-27T07:05:41.494Z,54.90
2018-09-27T07:08:09.011Z,54.80
2018-09-27T07:10:36.539Z,54.70
2018-09-27T07:13:04.074Z,54.60
2018-09-27T07:15:31.608Z,54.70
2018-09-27T07:17:59.125Z,54.80
2018-09-27T07:20:26.671Z,54.90
2018-09-27T07:22:54.126Z,55.00
2018-09-27T07:25:21.645Z,55.20
2018-09-27T07:27:49.162Z,55.50
2018-09-27T07:30:16.670Z,55.80
2018-09-27T07:32:44.259Z,56.10
2018-09-27T07:35:11.722Z,56.70
2018-09-27T07:37:39.232Z,56.40
2018-09-27T07:40:06.761Z,56.60
2018-09-27T07:42:34.286Z,56.80
2018-09-27T07:45:01.831Z,56.90
2018-09-27T07:47:29.349Z,57.00
2018-09-27T07:49:56.856Z,57.00
2018-09-27T07:52:24.377Z,56.70
2018-09-27T07:54:52.193Z,56.40
2018-09-27T07:57:19.790Z,56.80
2018-09-27T07:59:47.295Z,55.90
2018-09-27T08:02:14.838Z,55.60
2018-09-27T08:04:42.338Z,55.30
2018-09-27T08:07:09.841Z,55.50
2018-09-27T08:09:37.350Z,55.30
2018-09-27T08:12:04.862Z,55.30
2018-09-27T08:14:32.402Z,55.00
2018-09-27T08:16:59.979Z,54.90
2018-09-27T08:19:27.422Z,54.70
2018-09-27T08:21:54.947Z,54.40
2018-09-27T08:24:22.445Z,54.40
2018-09-27T08:26:49.960Z,55.00
2018-09-27T08:29:17.458Z,55.40
2018-09-27T08:31:44.973Z,55.10
2018-09-27T08:34:12.481Z,55.00
2018-09-27T08:36:39.987Z,55.00
2018-09-27T08:42:39.621Z,54.80
2018-09-27T08:45:07.383Z,55.00
2018-09-27T08:47:34.697Z,54.90
2018-09-27T08:50:02.217Z,55.20
2018-09-27T08:52:29.738Z,55.10
2018-09-27T08:54:57.249Z,54.80
2018-09-27T08:57:24.805Z,54.40
2018-09-27T08:59:52.351Z,54.40
2018-09-27T09:02:19.873Z,54.40
2018-09-27T09:04:47.381Z,54.30
2018-09-27T09:07:14.904Z,54.70
2018-09-27T09:09:42.459Z,55.30
2018-09-27T09:12:09.985Z,54.60
2018-09-27T09:14:37.458Z,54.50
2018-09-27T09:17:05.027Z,55.20
2018-09-27T09:19:32.565Z,54.90
2018-09-27T09:22:10.461Z,55.10
2018-09-27T09:24:38.193Z,54.80
2018-09-27T09:27:05.967Z,54.80
2018-09-27T09:29:33.576Z,54.90
2018-09-27T09:32:01.009Z,54.80
2018-09-27T09:34:28.529Z,54.30
2018-09-27T09:36:56.041Z,53.90
2018-09-27T09:39:53.742Z,53.70
2018-09-27T09:42:21.303Z,53.00
2018-09-27T09:44:48.820Z,52.90
2018-09-27T09:47:16.385Z,52.90
2018-09-27T09:49:43.902Z,53.30
2018-09-27T09:52:11.434Z,53.20
2018-09-27T09:54:38.974Z,53.10
2018-09-27T09:57:06.687Z,53.30
2018-09-27T09:59:34.218Z,53.50
2018-09-27T10:02:01.750Z,53.70
2018-09-27T10:04:29.273Z,53.50
2018-09-27T10:06:56.791Z,52.30
2018-09-27T10:09:24.310Z,51.80
2018-09-27T10:11:51.841Z,51.20
2018-09-27T10:14:19.376Z,49.90
2018-09-27T10:16:46.917Z,50.00
2018-09-27T10:19:14.444Z,50.00
2018-09-27T10:21:41.998Z,50.20
2018-09-27T10:24:09.505Z,49.60
2018-09-27T10:26:37.020Z,49.60
2018-09-27T10:29:04.535Z,49.50
2018-09-27T10:31:32.057Z,49.90
2018-09-27T10:33:59.570Z,49.90
2018-09-27T10:36:27.115Z,49.70
2018-09-27T10:38:54.645Z,49.80
2018-09-27T10:41:22.194Z,50.00
2018-09-27T10:43:49.726Z,49.50
2018-09-27T10:46:17.254Z,49.40
2018-09-27T10:48:44.791Z,49.30
2018-09-27T10:51:12.344Z,48.20
2018-09-27T10:53:39.907Z,47.60
2018-09-27T10:56:12.369Z,47.00
2018-09-27T10:58:39.898Z,46.70
2018-09-27T11:01:07.436Z,46.30
2018-09-27T11:03:34.994Z,46.40
2018-09-27T11:06:02.537Z,46.30
2018-09-27T11:08:30.071Z,46.50
2018-09-27T11:10:57.668Z,46.20
2018-09-27T11:13:25.195Z,46.60
2018-09-27T11:15:52.678Z,47.40
2018-09-27T11:18:20.217Z,48.30
2018-09-27T11:20:47.731Z,49.10
2018-09-27T11:23:15.237Z,49.60
2018-09-27T11:25:42.851Z,50.30
2018-09-27T11:28:10.370Z,50.80
2018-09-27T11:30:37.918Z,50.90
2018-09-27T11:33:05.595Z,50.70
2018-09-27T11:35:33.093Z,50.60
2018-09-27T11:38:00.617Z,51.00
2018-09-27T11:40:28.187Z,51.10
2018-09-27T11:42:55.756Z,51.10
2018-09-27T11:45:23.270Z,50.30
2018-09-27T11:47:50.811Z,50.10
2018-09-27T11:50:18.411Z,50.20
2018-09-27T11:52:45.902Z,50.50
2018-09-27T11:55:13.498Z,50.60
2018-09-27T11:57:41.014Z,50.30
2018-09-27T12:00:08.889Z,50.40
2018-09-27T12:02:36.765Z,50.30
2018-09-27T12:05:04.342Z,49.80
2018-09-27T12:07:31.897Z,49.60
2018-09-27T12:09:59.546Z,50.00
2018-09-27T12:12:27.073Z,49.40
2018-09-27T12:14:55.068Z,48.60
2018-09-27T12:17:22.646Z,49.00
2018-09-27T12:19:50.183Z,49.40
2018-09-27T12:22:17.861Z,49.80
2018-09-27T12:24:45.417Z,50.20
2018-09-27T12:27:12.971Z,49.90
2018-09-27T12:29:40.518Z,50.40
2018-09-27T12:32:08.306Z,50.20
2018-09-27T12:34:35.825Z,50.50
2018-09-27T12:37:03.357Z,50.30
2018-09-27T12:39:30.944Z,50.10
2018-09-27T12:41:58.638Z,50.00
2018-09-27T12:44:25.969Z,49.90
2018-09-27T12:46:53.528Z,49.70
2018-09-27T12:49:20.997Z,49.70
2018-09-27T12:51:48.649Z,50.20
2018-09-27T12:54:16.051Z,50.60
2018-09-27T12:56:43.564Z,50.80
2018-09-27T12:59:11.074Z,51.10
2018-09-27T13:01:38.691Z,51.30
2018-09-27T13:04:06.239Z,51.50
2018-09-27T13:06:33.735Z,51.40
2018-09-27T13:09:01.351Z,51.20
2018-09-27T13:11:28.771Z,52.20
2018-09-27T13:13:56.286Z,51.80
2018-09-27T13:16:23.830Z,51.70
2018-09-27T13:18:51.380Z,51.20
2018-09-27T13:21:18.907Z,50.90
2018-09-27T13:23:46.425Z,50.50
2018-09-27T13:26:13.937Z,50.80
2018-09-27T13:28:41.491Z,50.50
2018-09-27T13:31:08.990Z,50.30
2018-09-27T13:33:36.507Z,50.20
2018-09-27T13:36:04.071Z,50.20
2018-09-27T13:38:31.592Z,49.50
2018-09-27T13:40:59.159Z,49.30
2018-09-27T13:43:26.688Z,48.80
2018-09-27T13:45:54.209Z,48.70
2018-09-27T13:48:21.741Z,48.40
2018-09-27T13:50:49.262Z,48.40
2018-09-27T13:53:16.809Z,48.40
2018-09-27T13:55:44.325Z,48.10
2018-09-27T13:58:11.864Z,47.50
2018-09-27T14:00:39.402Z,47.60
2018-09-27T14:03:07.016Z,47.50
2018-09-27T14:05:34.597Z,47.40
2018-09-27T14:08:02.068Z,46.90
2018-09-27T14:10:29.593Z,47.10
2018-09-27T14:12:57.121Z,47.00
2018-09-27T14:15:24.670Z,47.00
2018-09-27T14:17:52.193Z,47.00
2018-09-27T14:20:19.737Z,47.20
2018-09-27T14:22:47.267Z,47.50
2018-09-27T14:25:14.814Z,47.20
2018-09-27T14:27:42.347Z,47.00
2018-09-27T14:30:09.902Z,47.20
2018-09-27T14:32:37.431Z,47.30
2018-09-27T14:35:04.986Z,47.50
2018-09-27T14:37:32.510Z,47.60
2018-09-27T14:40:00.050Z,48.00
2018-09-27T14:42:27.582Z,47.90
2018-09-27T14:44:55.105Z,47.90
2018-09-27T14:47:22.609Z,48.00
2018-09-27T14:49:50.135Z,48.30
2018-09-27T14:52:17.656Z,48.90
2018-09-27T14:54:45.214Z,49.40
2018-09-27T14:57:12.702Z,49.90
2018-09-27T14:59:40.284Z,50.30
2018-09-27T15:02:07.844Z,50.80
2018-09-27T15:04:35.378Z,51.10
2018-09-27T15:07:02.863Z,51.40
2018-09-27T15:09:30.431Z,51.90
2018-09-27T15:11:57.919Z,52.20
2018-09-27T15:14:25.491Z,52.50
2018-09-27T15:16:52.973Z,52.80
2018-09-27T15:19:20.494Z,53.10
2018-09-27T15:21:47.994Z,53.30
2018-09-27T15:24:15.509Z,53.80
2018-09-27T15:26:43.023Z,54.20
2018-09-27T15:29:28.673Z,54.60
2018-09-27T15:31:56.181Z,55.30
2018-09-27T15:34:23.693Z,55.30
2018-09-27T15:36:51.181Z,55.70
2018-09-27T15:39:18.687Z,56.00
2018-09-27T15:41:57.247Z,56.40
2018-09-27T15:44:24.791Z,56.90
2018-09-27T15:46:52.306Z,57.20
2018-09-27T15:49:19.855Z,57.40
2018-09-27T15:51:47.401Z,57.60
2018-09-27T15:54:14.947Z,57.80
2018-09-27T15:56:42.457Z,58.70
2018-09-27T15:59:09.985Z,58.30
2018-09-27T16:01:37.513Z,58.60
2018-09-27T16:04:05.159Z,59.00
2018-09-27T16:06:32.661Z,59.10
2018-09-27T16:09:00.183Z,59.40
2018-09-27T16:11:27.723Z,60.20
2018-09-27T16:13:55.259Z,59.90
2018-09-27T16:16:22.822Z,60.20
2018-09-27T16:18:50.350Z,61.00
2018-09-27T16:21:17.885Z,61.40
2018-09-27T16:23:45.460Z,61.90
2018-09-27T16:26:12.966Z,62.70
2018-09-27T16:28:40.478Z,63.60
2018-09-27T16:31:08.189Z,64.30
2018-09-27T16:33:36.120Z,65.10
2018-09-27T16:36:03.559Z,65.80
2018-09-27T16:38:32.458Z,66.70
2018-09-27T16:41:00.006Z,67.60
2018-09-27T16:43:27.535Z,68.40
2018-09-27T16:45:55.058Z,69.30
2018-09-27T16:48:22.583Z,70.10
2018-09-27T16:50:50.119Z,71.10
2018-09-27T16:53:17.672Z,72.20
2018-09-27T16:55:45.275Z,73.20
2018-09-27T16:58:12.779Z,73.70
2018-09-27T17:00:40.319Z,74.30
2018-09-27T17:03:07.848Z,75.00
2018-09-27T17:05:35.415Z,75.70
2018-09-27T17:08:02.918Z,76.30
2018-09-27T17:10:30.446Z,77.00
2018-09-27T17:12:57.962Z,77.60
2018-09-27T17:15:25.488Z,78.50
2018-09-27T17:17:53.303Z,78.90
2018-09-27T17:20:20.853Z,79.30
2018-09-27T17:22:48.380Z,80.20
2018-09-27T17:25:15.919Z,80.60
2018-09-27T17:27:43.576Z,81.30
2018-09-27T17:30:11.090Z,82.30
2018-09-27T17:32:38.608Z,83.70
2018-09-27T17:35:06.154Z,83.70
2018-09-27T17:37:33.687Z,84.30
2018-09-27T17:40:01.207Z,85.10
2018-09-27T17:42:28.717Z,85.80
2018-09-27T17:44:56.362Z,86.30
2018-09-27T17:47:24.014Z,86.80
2018-09-27T17:49:51.579Z,87.50
2018-09-27T17:52:19.089Z,87.70
2018-09-27T17:54:46.789Z,88.30
2018-09-27T17:57:18.929Z,88.90
2018-09-27T17:59:46.556Z,89.50
2018-09-27T18:02:14.138Z,90.20
2018-09-27T18:04:41.714Z,90.50
2018-09-27T18:07:09.158Z,90.60
2018-09-27T18:09:36.644Z,90.70
2018-09-27T18:12:04.185Z,91.00
2018-09-27T18:14:31.701Z,91.30
2018-09-27T18:16:59.218Z,91.60
2018-09-27T18:19:26.751Z,91.70
2018-09-27T18:21:54.281Z,91.90
2018-09-27T18:24:21.778Z,92.00
2018-09-27T18:26:49.299Z,92.30
2018-09-27T18:29:16.813Z,92.50
2018-09-27T18:35:01.411Z,93.00
2018-09-27T18:37:29.263Z,93.50
2018-09-27T18:39:56.705Z,93.70
2018-09-27T18:42:24.230Z,93.80
2018-09-27T18:44:51.734Z,93.90
2018-09-27T18:47:19.247Z,94.10
2018-09-27T18:49:46.882Z,94.20
2018-09-27T18:52:14.413Z,94.50
2018-09-27T18:54:41.922Z,94.60
2018-09-27T18:57:09.450Z,94.80
2018-09-27T18:59:36.964Z,95.10
2018-09-27T19:02:04.588Z,95.10
2018-09-27T19:04:32.100Z,95.30
2018-09-27T19:06:59.622Z,95.50
2018-09-27T19:09:27.105Z,95.60
2018-09-27T19:11:54.614Z,95.70
2018-09-27T19:14:22.109Z,95.80
2018-09-27T19:16:49.644Z,95.90
2018-09-27T19:22:24.090Z,96.40
2018-09-27T19:34:02.041Z,97.70
2018-09-27T19:36:29.557Z,97.90
2018-09-27T19:38:57.061Z,98.40
2018-09-27T19:41:24.585Z,98.70
2018-09-27T19:43:52.086Z,98.90
2018-09-27T19:46:19.593Z,99.30
2018-09-27T19:48:47.094Z,99.20
2018-09-27T19:54:14.742Z,99.70
2018-09-27T19:56:42.261Z,99.90
2018-09-27T19:59:09.787Z,99.90
2018-09-27T20:01:37.289Z,99.90
2018-09-27T20:04:04.900Z,99.90
2018-09-27T20:06:32.366Z,99.90
2018-09-27T20:08:59.864Z,99.90
2018-09-27T20:11:27.497Z,99.90
2018-09-27T20:13:54.993Z,99.90
2018-09-27T20:16:22.636Z,99.90
2018-09-27T20:18:50.013Z,99.90
2018-09-27T20:21:17.527Z,99.90
2018-09-27T20:23:45.038Z,99.90
2018-09-27T20:26:12.540Z,99.90
2018-09-27T20:28:40.055Z,99.90
2018-09-27T20:31:07.726Z,99.90
2018-09-27T20:33:35.246Z,99.90
2018-09-27T20:36:02.766Z,99.90
2018-09-27T20:38:30.265Z,99.90
2018-09-27T20:40:57.777Z,99.90
2018-09-27T20:43:25.305Z,99.90
2018-09-27T20:45:52.813Z,99.90
2018-09-27T20:48:20.361Z,99.90
2018-09-27T20:50:47.881Z,99.90
2018-09-27T20:53:15.401Z,99.90
2018-09-27T20:55:42.936Z,99.90
2018-09-27T20:58:10.455Z,99.90
2018-09-27T21:00:37.993Z,99.90
2018-09-27T21:03:05.639Z,99.90
2018-09-27T21:05:33.129Z,99.90
2018-09-27T21:08:00.962Z,99.90
2018-09-27T21:10:28.477Z,99.90
2018-09-27T21:12:56.001Z,99.90
2018-09-27T21:15:23.526Z,99.90
2018-09-27T21:17:51.054Z,99.90
2018-09-27T21:20:18.566Z,99.90
2018-09-27T21:22:46.099Z,99.90
2018-09-27T21:25:13.628Z,99.90
2018-09-27T21:27:41.175Z,99.90
2018-09-27T21:30:08.741Z,99.90
2018-09-27T21:32:36.262Z,99.90
2018-09-27T21:35:04.113Z,99.90
2018-09-27T21:37:31.650Z,99.90
2018-09-27T21:39:59.169Z,99.90
2018-09-27T21:42:26.706Z,99.90
2018-09-27T21:44:54.214Z,99.90
2018-09-27T21:47:21.743Z,99.90
2018-09-27T21:49:49.262Z,99.90
2018-09-27T21:52:16.765Z,99.90
2018-09-27T21:54:44.248Z,99.90
2018-09-27T21:57:24.238Z,99.90
2018-09-27T21:59:51.749Z,99.90
2018-09-27T22:02:22.979Z,99.90
2018-09-27T22:08:08.646Z,99.90
2018-09-27T22:10:36.163Z,99.90
2018-09-27T22:13:03.685Z,99.80
2018-09-27T22:15:31.201Z,99.20
2018-09-27T22:17:58.709Z,98.60
2018-09-27T22:20:28.216Z,98.40
2018-09-27T22:23:02.111Z,97.90
2018-09-27T22:25:47.384Z,98.20
2018-09-27T22:28:33.055Z,98.10
2018-09-27T22:31:00.561Z,98.20
2018-09-27T22:33:28.075Z,98.10
2018-09-27T22:35:55.581Z,98.10
2018-09-27T22:38:23.078Z,98.00
2018-09-27T22:40:51.393Z,98.00
2018-09-27T22:43:18.931Z,97.90
2018-09-27T22:45:46.474Z,97.60
2018-09-27T22:48:14.007Z,97.80
2018-09-27T22:50:41.543Z,97.70
2018-09-27T22:53:09.097Z,97.80
2018-09-27T22:55:36.629Z,97.70
2018-09-27T22:58:04.163Z,97.70
2018-09-27T23:00:31.689Z,97.20
2018-09-27T23:02:59.239Z,97.10
2018-09-27T23:05:26.779Z,96.80
2018-09-27T23:07:54.499Z,96.40
2018-09-27T23:10:22.002Z,96.20
2018-09-27T23:12:49.683Z,96.00
2018-09-27T23:15:17.205Z,95.80
2018-09-27T23:17:44.743Z,95.40
2018-09-27T23:20:12.266Z,95.10
2018-09-27T23:22:39.778Z,94.80
2018-09-27T23:25:07.607Z,94.60
2018-09-27T23:27:35.281Z,94.40
2018-09-27T23:30:03.069Z,94.20
2018-09-27T23:32:30.599Z,94.30
2018-09-27T23:34:58.117Z,94.10
2018-09-27T23:37:25.635Z,93.90
2018-09-27T23:39:53.167Z,93.60
2018-09-27T23:42:20.703Z,93.60
2018-09-27T23:44:48.230Z,93.50
2018-09-27T23:47:15.762Z,93.40
2018-09-27T23:49:43.290Z,93.30
2018-09-27T23:52:10.799Z,93.30
2018-09-27T23:54:38.341Z,93.50
2018-09-27T23:57:05.869Z,93.70
2018-09-27T23:59:33.396Z,94.10
